sensor_id;sensor_type;location;lat;lon;timestamp;pressure;altitude;pressure_sealevel;temperature;humidity
76728;BME280;65652;53.132;18.026;2023-01-10T00:00:41;100248.27;;;5.49;83.78
76728;BME280;65652;53.132;18.026;2023-01-10T00:03:24;100254.71;;;5.50;83.72
76728;BME280;65652;53.132;18.026;2023-01-10T00:05:51;100261.71;;;5.52;83.81
76728;BME280;65652;53.132;18.026;2023-01-10T00:08:18;100265.04;;;5.55;83.77
76728;BME280;65652;53.132;18.026;2023-01-10T00:10:46;100266.12;;;5.57;83.88
76728;BME280;65652;53.132;18.026;2023-01-10T00:13:15;100259.64;;;5.61;83.80
76728;BME280;65652;53.132;18.026;2023-01-10T00:15:53;100263.23;;;5.62;83.65
76728;BME280;65652;53.132;18.026;2023-01-10T00:18:20;100260.17;;;5.61;83.45
76728;BME280;65652;53.132;18.026;2023-01-10T00:20:48;100260.77;;;5.58;83.42
76728;BME280;65652;53.132;18.026;2023-01-10T00:23:15;100263.52;;;5.54;83.59
76728;BME280;65652;53.132;18.026;2023-01-10T00:25:43;100265.71;;;5.48;83.25
76728;BME280;65652;53.132;18.026;2023-01-10T00:28:10;100266.42;;;5.43;83.68
76728;BME280;65652;53.132;18.026;2023-01-10T00:30:46;100274.80;;;5.36;83.59
76728;BME280;65652;53.132;18.026;2023-01-10T00:33:14;100276.27;;;5.28;83.60
76728;BME280;65652;53.132;18.026;2023-01-10T00:35:46;100280.02;;;5.22;83.79
76728;BME280;65652;53.132;18.026;2023-01-10T00:38:14;100279.55;;;5.17;83.90
76728;BME280;65652;53.132;18.026;2023-01-10T00:40:41;100281.21;;;5.16;83.80
76728;BME280;65652;53.132;18.026;2023-01-10T00:43:09;100284.05;;;5.15;84.08
76728;BME280;65652;53.132;18.026;2023-01-10T00:45:54;100289.21;;;5.11;83.96
76728;BME280;65652;53.132;18.026;2023-01-10T00:48:23;100288.96;;;5.05;84.25
76728;BME280;65652;53.132;18.026;2023-01-10T00:50:50;100293.30;;;4.98;84.42
76728;BME280;65652;53.132;18.026;2023-01-10T00:53:18;100303.92;;;4.94;84.55
76728;BME280;65652;53.132;18.026;2023-01-10T00:55:45;100310.29;;;4.88;84.59
76728;BME280;65652;53.132;18.026;2023-01-10T00:58:15;100314.36;;;4.83;84.73
76728;BME280;65652;53.132;18.026;2023-01-10T01:00:43;100319.33;;;4.77;84.89
76728;BME280;65652;53.132;18.026;2023-01-10T01:03:16;100318.49;;;4.74;84.75
76728;BME280;65652;53.132;18.026;2023-01-10T01:05:46;100326.69;;;4.72;84.86
76728;BME280;65652;53.132;18.026;2023-01-10T01:08:15;100326.78;;;4.73;84.88
76728;BME280;65652;53.132;18.026;2023-01-10T01:10:42;100332.05;;;4.75;85.11
76728;BME280;65652;53.132;18.026;2023-01-10T01:13:17;100339.27;;;4.77;84.96
76728;BME280;65652;53.132;18.026;2023-01-10T01:15:46;100342.11;;;4.79;84.99
76728;BME280;65652;53.132;18.026;2023-01-10T01:18:16;100348.44;;;4.81;84.93
76728;BME280;65652;53.132;18.026;2023-01-10T01:20:44;100349.38;;;4.82;84.91
76728;BME280;65652;53.132;18.026;2023-01-10T01:23:11;100345.46;;;4.83;84.96
76728;BME280;65652;53.132;18.026;2023-01-10T01:25:39;100345.68;;;4.83;84.91
76728;BME280;65652;53.132;18.026;2023-01-10T01:28:06;100349.19;;;4.85;84.96
76728;BME280;65652;53.132;18.026;2023-01-10T01:30:33;100343.81;;;4.87;84.86
76728;BME280;65652;53.132;18.026;2023-01-10T01:33:00;100342.00;;;4.88;84.75
76728;BME280;65652;53.132;18.026;2023-01-10T01:35:27;100342.48;;;4.86;84.98
76728;BME280;65652;53.132;18.026;2023-01-10T01:37:54;100339.17;;;4.88;85.07
76728;BME280;65652;53.132;18.026;2023-01-10T01:40:22;100348.15;;;4.87;84.99
76728;BME280;65652;53.132;18.026;2023-01-10T01:42:49;100355.19;;;4.87;84.75
76728;BME280;65652;53.132;18.026;2023-01-10T01:48:05;100362.98;;;4.83;84.94
76728;BME280;65652;53.132;18.026;2023-01-10T01:53:20;100365.61;;;4.83;84.78
76728;BME280;65652;53.132;18.026;2023-01-10T01:55:50;100362.82;;;4.80;84.82
76728;BME280;65652;53.132;18.026;2023-01-10T01:58:27;100362.34;;;4.77;84.94
76728;BME280;65652;53.132;18.026;2023-01-10T02:00:56;100365.72;;;4.76;84.91
76728;BME280;65652;53.132;18.026;2023-01-10T02:03:25;100368.58;;;4.75;84.96
76728;BME280;65652;53.132;18.026;2023-01-10T02:05:52;100377.98;;;4.73;85.13
76728;BME280;65652;53.132;18.026;2023-01-10T02:08:19;100387.14;;;4.75;85.09
76728;BME280;65652;53.132;18.026;2023-01-10T02:10:52;100384.18;;;4.78;85.07
76728;BME280;65652;53.132;18.026;2023-01-10T02:13:23;100381.81;;;4.81;84.79
76728;BME280;65652;53.132;18.026;2023-01-10T02:15:51;100382.93;;;4.85;85.15
76728;BME280;65652;53.132;18.026;2023-01-10T02:18:18;100380.32;;;4.85;85.13
76728;BME280;65652;53.132;18.026;2023-01-10T02:34:21;100416.67;;;5.11;84.74
76728;BME280;65652;53.132;18.026;2023-01-10T02:37:02;100418.91;;;5.14;84.73
76728;BME280;65652;53.132;18.026;2023-01-10T02:42:18;100428.52;;;5.09;84.63
76728;BME280;65652;53.132;18.026;2023-01-10T02:44:55;100432.08;;;5.08;84.60
76728;BME280;65652;53.132;18.026;2023-01-10T02:47:24;100433.15;;;5.05;84.45
76728;BME280;65652;53.132;18.026;2023-01-10T02:49:51;100438.11;;;5.05;84.55
76728;BME280;65652;53.132;18.026;2023-01-10T02:52:24;100443.30;;;5.05;84.35
76728;BME280;65652;53.132;18.026;2023-01-10T02:54:56;100447.54;;;5.07;84.55
76728;BME280;65652;53.132;18.026;2023-01-10T03:00:50;100450.44;;;5.11;84.36
76728;BME280;65652;53.132;18.026;2023-01-10T03:03:35;100449.29;;;5.05;84.03
76728;BME280;65652;53.132;18.026;2023-01-10T03:09:19;100458.39;;;4.92;84.58
76728;BME280;65652;53.132;18.026;2023-01-10T03:11:38;100461.89;;;4.90;84.16
76728;BME280;65652;53.132;18.026;2023-01-10T03:14:13;100469.52;;;4.85;84.14
76728;BME280;65652;53.132;18.026;2023-01-10T03:16:46;100475.07;;;4.81;84.12
76728;BME280;65652;53.132;18.026;2023-01-10T03:19:18;100483.03;;;4.77;84.01
76728;BME280;65652;53.132;18.026;2023-01-10T03:21:47;100488.90;;;4.73;84.23
76728;BME280;65652;53.132;18.026;2023-01-10T03:24:30;100492.56;;;4.68;84.09
76728;BME280;65652;53.132;18.026;2023-01-10T03:27:23;100492.52;;;4.66;84.07
76728;BME280;65652;53.132;18.026;2023-01-10T03:32:26;100496.23;;;4.63;84.36
76728;BME280;65652;53.132;18.026;2023-01-10T03:34:54;100501.01;;;4.62;84.21
76728;BME280;65652;53.132;18.026;2023-01-10T03:42:52;100503.45;;;4.60;84.60
76728;BME280;65652;53.132;18.026;2023-01-10T03:45:43;100503.50;;;4.59;84.49
76728;BME280;65652;53.132;18.026;2023-01-10T03:48:14;100505.05;;;4.59;84.37
76728;BME280;65652;53.132;18.026;2023-01-10T03:50:43;100506.25;;;4.62;84.36
76728;BME280;65652;53.132;18.026;2023-01-10T03:53:12;100502.20;;;4.65;84.37
76728;BME280;65652;53.132;18.026;2023-01-10T03:55:41;100500.91;;;4.66;84.22
76728;BME280;65652;53.132;18.026;2023-01-10T03:58:08;100502.45;;;4.69;84.26
76728;BME280;65652;53.132;18.026;2023-01-10T04:00:35;100505.69;;;4.73;84.29
76728;BME280;65652;53.132;18.026;2023-01-10T04:03:02;100508.21;;;4.77;84.18
76728;BME280;65652;53.132;18.026;2023-01-10T04:05:28;100514.59;;;4.81;84.11
76728;BME280;65652;53.132;18.026;2023-01-10T04:07:55;100516.15;;;4.81;84.02
76728;BME280;65652;53.132;18.026;2023-01-10T04:10:22;100519.71;;;4.80;84.03
76728;BME280;65652;53.132;18.026;2023-01-10T04:12:52;100529.40;;;4.82;84.15
76728;BME280;65652;53.132;18.026;2023-01-10T04:15:19;100536.00;;;4.82;83.99
76728;BME280;65652;53.132;18.026;2023-01-10T04:17:47;100542.20;;;4.82;83.82
76728;BME280;65652;53.132;18.026;2023-01-10T04:20:14;100545.15;;;4.77;83.56
76728;BME280;65652;53.132;18.026;2023-01-10T04:22:41;100548.40;;;4.72;83.58
76728;BME280;65652;53.132;18.026;2023-01-10T04:25:08;100551.65;;;4.66;83.50
76728;BME280;65652;53.132;18.026;2023-01-10T04:27:35;100555.70;;;4.60;83.48
76728;BME280;65652;53.132;18.026;2023-01-10T04:30:02;100559.73;;;4.54;83.69
76728;BME280;65652;53.132;18.026;2023-01-10T04:32:29;100563.48;;;4.51;83.77
76728;BME280;65652;53.132;18.026;2023-01-10T04:34:56;100568.17;;;4.48;83.79
76728;BME280;65652;53.132;18.026;2023-01-10T04:37:23;100570.59;;;4.52;83.95
76728;BME280;65652;53.132;18.026;2023-01-10T04:39:50;100580.15;;;4.58;83.89
76728;BME280;65652;53.132;18.026;2023-01-10T04:42:17;100586.03;;;4.61;83.91
76728;BME280;65652;53.132;18.026;2023-01-10T04:44:44;100588.52;;;4.63;83.83
76728;BME280;65652;53.132;18.026;2023-01-10T04:47:11;100591.75;;;4.68;83.95
76728;BME280;65652;53.132;18.026;2023-01-10T04:49:38;100601.90;;;4.67;83.53
76728;BME280;65652;53.132;18.026;2023-01-10T04:52:04;100600.86;;;4.70;83.75
76728;BME280;65652;53.132;18.026;2023-01-10T04:54:31;100607.98;;;4.68;83.53
76728;BME280;65652;53.132;18.026;2023-01-10T04:56:58;100619.64;;;4.67;83.28
76728;BME280;65652;53.132;18.026;2023-01-10T04:59:25;100616.57;;;4.63;83.52
76728;BME280;65652;53.132;18.026;2023-01-10T05:01:52;100619.48;;;4.55;83.33
76728;BME280;65652;53.132;18.026;2023-01-10T05:04:19;100625.25;;;4.50;83.16
76728;BME280;65652;53.132;18.026;2023-01-10T05:06:46;100621.03;;;4.42;83.22
76728;BME280;65652;53.132;18.026;2023-01-10T05:09:12;100627.34;;;4.34;83.20
76728;BME280;65652;53.132;18.026;2023-01-10T05:11:39;100631.98;;;4.27;83.08
76728;BME280;65652;53.132;18.026;2023-01-10T05:14:06;100639.30;;;4.21;83.38
76728;BME280;65652;53.132;18.026;2023-01-10T05:16:33;100644.27;;;4.20;83.52
76728;BME280;65652;53.132;18.026;2023-01-10T05:19:02;100643.98;;;4.19;83.44
76728;BME280;65652;53.132;18.026;2023-01-10T05:21:29;100648.97;;;4.20;83.51
76728;BME280;65652;53.132;18.026;2023-01-10T05:23:56;100655.77;;;4.23;83.56
76728;BME280;65652;53.132;18.026;2023-01-10T05:26:23;100659.36;;;4.22;83.49
76728;BME280;65652;53.132;18.026;2023-01-10T05:28:50;100666.39;;;4.19;83.48
76728;BME280;65652;53.132;18.026;2023-01-10T05:31:18;100669.85;;;4.11;83.12
76728;BME280;65652;53.132;18.026;2023-01-10T05:33:47;100674.14;;;4.03;83.33
76728;BME280;65652;53.132;18.026;2023-01-10T05:36:16;100677.90;;;3.99;83.37
76728;BME280;65652;53.132;18.026;2023-01-10T05:38:43;100683.24;;;3.94;83.25
76728;BME280;65652;53.132;18.026;2023-01-10T05:41:10;100686.49;;;3.87;83.18
76728;BME280;65652;53.132;18.026;2023-01-10T05:43:37;100692.52;;;3.83;83.20
76728;BME280;65652;53.132;18.026;2023-01-10T05:46:04;100699.91;;;3.79;83.30
76728;BME280;65652;53.132;18.026;2023-01-10T05:48:30;100701.73;;;3.75;83.09
76728;BME280;65652;53.132;18.026;2023-01-10T05:50:57;100705.95;;;3.71;83.37
76728;BME280;65652;53.132;18.026;2023-01-10T05:53:24;100708.60;;;3.70;83.43
76728;BME280;65652;53.132;18.026;2023-01-10T05:55:56;100713.33;;;3.67;83.39
76728;BME280;65652;53.132;18.026;2023-01-10T05:58:24;100717.48;;;3.62;83.38
76728;BME280;65652;53.132;18.026;2023-01-10T06:00:51;100725.88;;;3.59;83.32
76728;BME280;65652;53.132;18.026;2023-01-10T06:03:18;100731.39;;;3.57;83.43
76728;BME280;65652;53.132;18.026;2023-01-10T06:05:45;100733.02;;;3.56;83.57
76728;BME280;65652;53.132;18.026;2023-01-10T06:08:12;100740.14;;;3.54;83.64
76728;BME280;65652;53.132;18.026;2023-01-10T06:10:39;100743.25;;;3.55;83.77
76728;BME280;65652;53.132;18.026;2023-01-10T06:13:06;100743.55;;;3.55;83.82
76728;BME280;65652;53.132;18.026;2023-01-10T06:15:35;100746.59;;;3.60;83.91
76728;BME280;65652;53.132;18.026;2023-01-10T06:18:02;100750.13;;;3.68;83.92
76728;BME280;65652;53.132;18.026;2023-01-10T06:20:29;100758.77;;;3.73;83.83
76728;BME280;65652;53.132;18.026;2023-01-10T06:22:56;100754.37;;;3.70;83.79
76728;BME280;65652;53.132;18.026;2023-01-10T06:25:24;100760.28;;;3.71;83.90
76728;BME280;65652;53.132;18.026;2023-01-10T06:27:51;100763.05;;;3.72;83.83
76728;BME280;65652;53.132;18.026;2023-01-10T06:30:18;100761.74;;;3.73;83.87
76728;BME280;65652;53.132;18.026;2023-01-10T06:32:45;100771.77;;;3.77;83.90
76728;BME280;65652;53.132;18.026;2023-01-10T06:35:12;100779.11;;;3.83;84.00
76728;BME280;65652;53.132;18.026;2023-01-10T06:37:38;100785.54;;;3.90;83.94
76728;BME280;65652;53.132;18.026;2023-01-10T06:40:06;100795.02;;;3.95;83.89
76728;BME280;65652;53.132;18.026;2023-01-10T06:42:33;100796.70;;;3.93;83.62
76728;BME280;65652;53.132;18.026;2023-01-10T06:45:00;100796.14;;;3.91;83.51
76728;BME280;65652;53.132;18.026;2023-01-10T06:47:27;100798.92;;;3.94;83.73
76728;BME280;65652;53.132;18.026;2023-01-10T06:49:53;100810.44;;;3.94;83.75
76728;BME280;65652;53.132;18.026;2023-01-10T06:52:20;100815.70;;;3.91;83.73
76728;BME280;65652;53.132;18.026;2023-01-10T06:54:47;100818.48;;;3.94;83.94
76728;BME280;65652;53.132;18.026;2023-01-10T06:57:14;100819.73;;;3.99;83.85
76728;BME280;65652;53.132;18.026;2023-01-10T06:59:41;100820.59;;;4.06;83.87
76728;BME280;65652;53.132;18.026;2023-01-10T07:02:10;100822.30;;;4.12;83.88
76728;BME280;65652;53.132;18.026;2023-01-10T07:04:37;100829.15;;;4.17;83.72
76728;BME280;65652;53.132;18.026;2023-01-10T07:07:04;100834.17;;;4.24;83.76
76728;BME280;65652;53.132;18.026;2023-01-10T07:09:31;100836.98;;;4.27;83.44
76728;BME280;65652;53.132;18.026;2023-01-10T07:11:58;100839.36;;;4.28;83.61
76728;BME280;65652;53.132;18.026;2023-01-10T07:14:24;100845.16;;;4.28;83.37
76728;BME280;65652;53.132;18.026;2023-01-10T07:16:51;100847.01;;;4.26;83.40
76728;BME280;65652;53.132;18.026;2023-01-10T07:19:18;100848.15;;;4.24;83.34
76728;BME280;65652;53.132;18.026;2023-01-10T07:21:45;100855.30;;;4.21;83.28
76728;BME280;65652;53.132;18.026;2023-01-10T07:24:12;100858.08;;;4.22;83.45
76728;BME280;65652;53.132;18.026;2023-01-10T07:26:39;100861.45;;;4.21;83.22
76728;BME280;65652;53.132;18.026;2023-01-10T07:29:06;100862.31;;;4.21;83.21
76728;BME280;65652;53.132;18.026;2023-01-10T07:31:33;100859.54;;;4.21;83.25
76728;BME280;65652;53.132;18.026;2023-01-10T07:34:00;100860.84;;;4.23;83.16
76728;BME280;65652;53.132;18.026;2023-01-10T07:36:27;100863.75;;;4.26;83.35
76728;BME280;65652;53.132;18.026;2023-01-10T07:38:54;100867.66;;;4.31;83.17
76728;BME280;65652;53.132;18.026;2023-01-10T07:41:21;100871.14;;;4.35;83.07
76728;BME280;65652;53.132;18.026;2023-01-10T07:43:47;100872.17;;;4.37;83.24
76728;BME280;65652;53.132;18.026;2023-01-10T07:46:15;100875.98;;;4.44;83.21
76728;BME280;65652;53.132;18.026;2023-01-10T07:48:41;100881.40;;;4.50;83.11
76728;BME280;65652;53.132;18.026;2023-01-10T07:51:08;100884.63;;;4.51;82.92
76728;BME280;65652;53.132;18.026;2023-01-10T07:53:37;100886.41;;;4.51;82.97
76728;BME280;65652;53.132;18.026;2023-01-10T07:56:04;100891.39;;;4.49;83.08
76728;BME280;65652;53.132;18.026;2023-01-10T07:58:31;100895.93;;;4.47;83.01
76728;BME280;65652;53.132;18.026;2023-01-10T08:01:00;100903.95;;;4.44;83.14
76728;BME280;65652;53.132;18.026;2023-01-10T08:03:28;100905.34;;;4.42;82.99
76728;BME280;65652;53.132;18.026;2023-01-10T08:06:03;100907.42;;;4.41;83.19
76728;BME280;65652;53.132;18.026;2023-01-10T08:08:32;100911.36;;;4.43;82.82
76728;BME280;65652;53.132;18.026;2023-01-10T08:10:59;100916.50;;;4.45;83.05
76728;BME280;65652;53.132;18.026;2023-01-10T08:13:29;100916.32;;;4.48;83.13
76728;BME280;65652;53.132;18.026;2023-01-10T08:15:56;100924.30;;;4.52;82.96
76728;BME280;65652;53.132;18.026;2023-01-10T08:18:24;100922.00;;;4.55;82.97
76728;BME280;65652;53.132;18.026;2023-01-10T08:20:53;100916.66;;;4.57;82.79
76728;BME280;65652;53.132;18.026;2023-01-10T08:23:20;100921.94;;;4.59;83.01
76728;BME280;65652;53.132;18.026;2023-01-10T08:25:48;100929.32;;;4.62;82.95
76728;BME280;65652;53.132;18.026;2023-01-10T08:28:16;100934.37;;;4.62;82.96
76728;BME280;65652;53.132;18.026;2023-01-10T08:30:43;100938.12;;;4.61;82.93
76728;BME280;65652;53.132;18.026;2023-01-10T08:33:10;100939.79;;;4.59;83.16
76728;BME280;65652;53.132;18.026;2023-01-10T08:35:39;100940.62;;;4.60;82.86
76728;BME280;65652;53.132;18.026;2023-01-10T08:38:07;100944.92;;;4.64;83.22
76728;BME280;65652;53.132;18.026;2023-01-10T08:40:35;100948.60;;;4.70;82.96
76728;BME280;65652;53.132;18.026;2023-01-10T08:43:04;100952.98;;;4.75;83.35
76728;BME280;65652;53.132;18.026;2023-01-10T08:45:32;100954.06;;;4.81;83.10
76728;BME280;65652;53.132;18.026;2023-01-10T08:47:59;100960.83;;;4.82;83.21
76728;BME280;65652;53.132;18.026;2023-01-10T08:50:26;100968.73;;;4.84;83.13
76728;BME280;65652;53.132;18.026;2023-01-10T08:52:53;100968.52;;;4.85;82.91
76728;BME280;65652;53.132;18.026;2023-01-10T08:55:22;100971.32;;;4.85;82.79
76728;BME280;65652;53.132;18.026;2023-01-10T08:57:49;100974.99;;;4.85;82.79
76728;BME280;65652;53.132;18.026;2023-01-10T09:00:16;100976.14;;;4.89;83.28
76728;BME280;65652;53.132;18.026;2023-01-10T09:02:43;100980.52;;;4.92;83.29
76728;BME280;65652;53.132;18.026;2023-01-10T09:05:11;100992.72;;;4.96;83.19
76728;BME280;65652;53.132;18.026;2023-01-10T09:07:37;100990.04;;;4.96;83.03
76728;BME280;65652;53.132;18.026;2023-01-10T09:10:07;100997.56;;;4.99;82.95
76728;BME280;65652;53.132;18.026;2023-01-10T09:12:34;100999.14;;;5.05;83.30
76728;BME280;65652;53.132;18.026;2023-01-10T09:15:27;101003.73;;;5.10;83.16
76728;BME280;65652;53.132;18.026;2023-01-10T09:17:54;101009.71;;;5.16;83.26
76728;BME280;65652;53.132;18.026;2023-01-10T09:20:23;101011.23;;;5.19;83.12
76728;BME280;65652;53.132;18.026;2023-01-10T09:22:50;101015.83;;;5.24;82.99
76728;BME280;65652;53.132;18.026;2023-01-10T09:25:17;101020.30;;;5.32;83.13
76728;BME280;65652;53.132;18.026;2023-01-10T09:27:44;101024.92;;;5.39;83.00
76728;BME280;65652;53.132;18.026;2023-01-10T09:30:12;101022.71;;;5.44;82.86
76728;BME280;65652;53.132;18.026;2023-01-10T09:32:39;101024.94;;;5.45;82.49
76728;BME280;65652;53.132;18.026;2023-01-10T09:35:06;101029.09;;;5.45;82.59
76728;BME280;65652;53.132;18.026;2023-01-10T09:37:33;101029.30;;;5.44;82.47
76728;BME280;65652;53.132;18.026;2023-01-10T09:40:00;101030.00;;;5.39;82.31
76728;BME280;65652;53.132;18.026;2023-01-10T09:48:57;101037.66;;;5.48;83.07
76728;BME280;65652;53.132;18.026;2023-01-10T09:53:43;101040.02;;;5.50;82.81
76728;BME280;65652;53.132;18.026;2023-01-10T09:56:13;101037.51;;;5.48;82.74
76728;BME280;65652;53.132;18.026;2023-01-10T09:58:41;101038.46;;;5.49;83.29
76728;BME280;65652;53.132;18.026;2023-01-10T10:01:16;101036.70;;;5.52;83.24
76728;BME280;65652;53.132;18.026;2023-01-10T10:06:32;101038.43;;;5.53;83.04
76728;BME280;65652;53.132;18.026;2023-01-10T10:09:00;101039.34;;;5.55;83.25
76728;BME280;65652;53.132;18.026;2023-01-10T10:12:34;101041.38;;;5.59;83.23
76728;BME280;65652;53.132;18.026;2023-01-10T10:14:46;101040.02;;;5.58;83.33
76728;BME280;65652;53.132;18.026;2023-01-10T10:17:56;101038.98;;;5.52;82.98
76728;BME280;65652;53.132;18.026;2023-01-10T10:23:24;101038.70;;;5.51;83.20
76728;BME280;65652;53.132;18.026;2023-01-10T10:26:01;101041.24;;;5.53;83.33
76728;BME280;65652;53.132;18.026;2023-01-10T10:28:40;101041.73;;;5.53;83.47
76728;BME280;65652;53.132;18.026;2023-01-10T10:36:23;101048.38;;;5.65;83.52
76728;BME280;65652;53.132;18.026;2023-01-10T10:38:56;101049.63;;;5.70;83.32
76728;BME280;65652;53.132;18.026;2023-01-10T10:41:33;101050.47;;;5.74;83.54
76728;BME280;65652;53.132;18.026;2023-01-10T10:46:45;101062.60;;;5.73;83.40
76728;BME280;65652;53.132;18.026;2023-01-10T10:49:17;101056.17;;;5.72;83.32
76728;BME280;65652;53.132;18.026;2023-01-10T10:51:51;101056.61;;;5.68;83.23
76728;BME280;65652;53.132;18.026;2023-01-10T10:54:18;101060.77;;;5.66;83.35
76728;BME280;65652;53.132;18.026;2023-01-10T10:56:45;101064.83;;;5.62;83.28
76728;BME280;65652;53.132;18.026;2023-01-10T10:59:17;101070.67;;;5.61;83.57
76728;BME280;65652;53.132;18.026;2023-01-10T11:01:45;101070.85;;;5.61;83.47
76728;BME280;65652;53.132;18.026;2023-01-10T11:04:20;101069.39;;;5.62;83.91
76728;BME280;65652;53.132;18.026;2023-01-10T11:06:48;101072.04;;;5.65;83.47
76728;BME280;65652;53.132;18.026;2023-01-10T11:09:18;101072.27;;;5.69;83.88
76728;BME280;65652;53.132;18.026;2023-01-10T11:12:02;101080.17;;;5.72;83.63
76728;BME280;65652;53.132;18.026;2023-01-10T11:14:47;101085.36;;;5.76;83.70
76728;BME280;65652;53.132;18.026;2023-01-10T11:17:25;101085.73;;;5.78;83.55
76728;BME280;65652;53.132;18.026;2023-01-10T11:22:21;101097.04;;;5.80;83.61
76728;BME280;65652;53.132;18.026;2023-01-10T11:24:57;101099.97;;;5.84;83.29
76728;BME280;65652;53.132;18.026;2023-01-10T11:27:28;101105.48;;;5.85;83.25
76728;BME280;65652;53.132;18.026;2023-01-10T11:29:58;101110.05;;;5.85;83.39
76728;BME280;65652;53.132;18.026;2023-01-10T11:32:33;101112.16;;;5.82;83.29
76728;BME280;65652;53.132;18.026;2023-01-10T11:35:05;101116.52;;;5.83;83.41
76728;BME280;65652;53.132;18.026;2023-01-10T11:37:34;101121.05;;;5.83;83.26
76728;BME280;65652;53.132;18.026;2023-01-10T11:40:18;101120.55;;;5.83;83.35
76728;BME280;65652;53.132;18.026;2023-01-10T11:42:47;101127.10;;;5.84;83.36
76728;BME280;65652;53.132;18.026;2023-01-10T11:50:26;101126.02;;;5.85;83.32
76728;BME280;65652;53.132;18.026;2023-01-10T11:52:53;101135.63;;;5.83;83.51
76728;BME280;65652;53.132;18.026;2023-01-10T11:55:26;101136.91;;;5.82;83.48
76728;BME280;65652;53.132;18.026;2023-01-10T11:58:06;101145.29;;;5.82;83.70
76728;BME280;65652;53.132;18.026;2023-01-10T12:00:40;101141.46;;;5.85;83.35
76728;BME280;65652;53.132;18.026;2023-01-10T12:03:28;101147.10;;;5.87;83.54
76728;BME280;65652;53.132;18.026;2023-01-10T12:06:08;101148.35;;;5.87;83.43
76728;BME280;65652;53.132;18.026;2023-01-10T12:08:39;101150.46;;;5.86;83.68
76728;BME280;65652;53.132;18.026;2023-01-10T12:13:45;101159.12;;;5.94;83.82
76728;BME280;65652;53.132;18.026;2023-01-10T12:16:45;101159.30;;;5.99;83.46
76728;BME280;65652;53.132;18.026;2023-01-10T12:19:12;101159.04;;;6.01;83.63
76728;BME280;65652;53.132;18.026;2023-01-10T12:21:41;101162.54;;;6.01;83.55
76728;BME280;65652;53.132;18.026;2023-01-10T12:26:40;101164.45;;;5.98;83.26
76728;BME280;65652;53.132;18.026;2023-01-10T12:29:20;101164.58;;;5.96;83.69
76728;BME280;65652;53.132;18.026;2023-01-10T12:31:49;101160.77;;;5.96;83.60
76728;BME280;65652;53.132;18.026;2023-01-10T12:34:24;101160.98;;;5.92;83.77
76728;BME280;65652;53.132;18.026;2023-01-10T12:36:59;101169.89;;;5.89;83.47
76728;BME280;65652;53.132;18.026;2023-01-10T12:39:32;101172.45;;;5.88;83.94
76728;BME280;65652;53.132;18.026;2023-01-10T12:45:09;101175.84;;;5.89;83.85
76728;BME280;65652;53.132;18.026;2023-01-10T12:48:03;101175.85;;;5.90;83.93
76728;BME280;65652;53.132;18.026;2023-01-10T12:50:40;101176.16;;;5.88;83.98
76728;BME280;65652;53.132;18.026;2023-01-10T12:55:41;101185.39;;;5.86;84.13
76728;BME280;65652;53.132;18.026;2023-01-10T12:58:26;101183.98;;;5.85;83.94
76728;BME280;65652;53.132;18.026;2023-01-10T13:00:58;101181.08;;;5.87;84.09
76728;BME280;65652;53.132;18.026;2023-01-10T13:03:30;101183.90;;;5.90;84.22
76728;BME280;65652;53.132;18.026;2023-01-10T13:05:59;101184.67;;;5.92;84.12
76728;BME280;65652;53.132;18.026;2023-01-10T13:08:29;101186.36;;;5.93;84.38
76728;BME280;65652;53.132;18.026;2023-01-10T13:10:59;101184.81;;;5.92;84.27
76728;BME280;65652;53.132;18.026;2023-01-10T13:13:42;101191.88;;;5.91;84.06
76728;BME280;65652;53.132;18.026;2023-01-10T13:16:29;101191.59;;;5.90;84.33
76728;BME280;65652;53.132;18.026;2023-01-10T13:21:39;101206.33;;;5.87;84.05
76728;BME280;65652;53.132;18.026;2023-01-10T13:26:56;101206.55;;;5.92;84.45
76728;BME280;65652;53.132;18.026;2023-01-10T13:29:36;101200.49;;;5.97;84.55
76728;BME280;65652;53.132;18.026;2023-01-10T13:32:20;101201.21;;;5.99;84.41
76728;BME280;65652;53.132;18.026;2023-01-10T13:34:48;101205.36;;;6.03;84.31
76728;BME280;65652;53.132;18.026;2023-01-10T13:37:28;101209.81;;;6.07;84.22
76728;BME280;65652;53.132;18.026;2023-01-10T13:39:59;101208.81;;;6.13;84.04
76728;BME280;65652;53.132;18.026;2023-01-10T13:42:31;101212.75;;;6.17;84.43
76728;BME280;65652;53.132;18.026;2023-01-10T13:45:27;101220.45;;;6.20;83.87
76728;BME280;65652;53.132;18.026;2023-01-10T13:47:56;101221.89;;;6.22;84.07
76728;BME280;65652;53.132;18.026;2023-01-10T13:52:52;101234.27;;;6.23;83.57
76728;BME280;65652;53.132;18.026;2023-01-10T13:57:56;101245.02;;;6.23;83.81
76728;BME280;65652;53.132;18.026;2023-01-10T14:00:42;101241.16;;;6.23;84.02
76728;BME280;65652;53.132;18.026;2023-01-10T14:03:45;101244.07;;;6.24;83.57
76728;BME280;65652;53.132;18.026;2023-01-10T14:06:30;101254.36;;;6.22;83.25
76728;BME280;65652;53.132;18.026;2023-01-10T14:09:27;101261.84;;;6.20;83.51
76728;BME280;65652;53.132;18.026;2023-01-10T14:12:01;101274.64;;;6.20;83.61
76728;BME280;65652;53.132;18.026;2023-01-10T14:14:30;101278.51;;;6.20;83.49
76728;BME280;65652;53.132;18.026;2023-01-10T14:17:26;101286.41;;;6.19;83.58
76728;BME280;65652;53.132;18.026;2023-01-10T14:22:37;101291.35;;;6.13;83.52
76728;BME280;65652;53.132;18.026;2023-01-10T14:25:18;101296.33;;;6.09;83.66
76728;BME280;65652;53.132;18.026;2023-01-10T14:27:47;101304.54;;;6.07;83.83
76728;BME280;65652;53.132;18.026;2023-01-10T14:33:31;101316.18;;;6.05;84.01
76728;BME280;65652;53.132;18.026;2023-01-10T14:36:07;101316.89;;;6.06;83.98
76728;BME280;65652;53.132;18.026;2023-01-10T14:38:36;101315.53;;;6.05;84.18
76728;BME280;65652;53.132;18.026;2023-01-10T14:44:06;101314.41;;;6.09;84.27